Time;durP1;ratioP1;P1;durP2;ratioP2;P2;SDS_P1;SDS_P2;PMS_P1;PMS_P2;Temp;Humidity;BMP_temperature;BMP_pressure;BME280_temperature;BME280_humidity;BME280_pressure;Samples;Min_cycle;Max_cycle;Signal;HPM_P1;HPM_P2
2022/03/20 00:01:29;;;;;;;14.48;7.00;;;;;;;;;;6209496;22;20470;-87
2022/03/20 00:04:08;;;;;;;13.60;7.22;;;;;;;;;;6261921;22;20027;-86
2022/03/20 00:06:36;;;;;;;10.43;6.43;;;;;;;;;;6234862;22;20055;-88
2022/03/20 00:09:02;;;;;;;10.10;6.13;;;;;;;;;;6284961;22;20024;-85
2022/03/20 00:11:35;;;;;;;14.13;6.75;;;;;;;;;;6254446;22;20641;-87
2022/03/20 00:14:01;;;;;;;11.00;6.68;;;;;;;;;;6257265;22;20034;-84
2022/03/20 00:16:29;;;;;;;13.75;6.40;;;;;;;;;;6255020;22;20054;-86
2022/03/20 00:18:56;;;;;;;19.33;6.25;;;;;;;;;;6283221;22;20044;-85
2022/03/20 00:21:22;;;;;;;9.77;6.75;;;;;;;;;;6255399;22;20028;-86
2022/03/20 00:23:48;;;;;;;11.20;6.40;;;;;;;;;;6230671;22;20024;-85
2022/03/20 00:26:26;;;;;;;15.75;6.45;;;;;;;;;;6282029;22;20698;-84
2022/03/20 00:32:06;;;;;;;12.00;7.10;;;;;;;;;;6256198;22;20027;-84
2022/03/20 00:34:38;;;;;;;14.18;6.90;;;;;;;;;;6254725;22;20169;-85
2022/03/20 00:37:29;;;;;;;14.55;7.05;;;;;;;;;;6230365;22;20026;-85
2022/03/20 00:42:59;;;;;;;10.30;6.72;;;;;;;;;;6284236;22;20129;-86
2022/03/20 00:45:28;;;;;;;10.57;6.50;;;;;;;;;;6254146;22;20020;-84
2022/03/20 00:47:54;;;;;;;12.95;6.82;;;;;;;;;;6257991;22;20019;-85
2022/03/20 00:50:44;;;;;;;12.27;7.43;;;;;;;;;;6206319;22;20369;-86
2022/03/20 00:53:10;;;;;;;13.00;6.95;;;;;;;;;;6231121;22;20039;-84
2022/03/20 00:55:36;;;;;;;15.50;6.88;;;;;;;;;;6229460;22;20012;-84
2022/03/20 00:58:02;;;;;;;13.88;7.30;;;;;;;;;;6254104;22;20023;-85
2022/03/20 01:00:32;;;;;;;13.13;7.60;;;;;;;;;;6228670;22;20356;-89
2022/03/20 01:02:59;;;;;;;13.55;7.45;;;;;;;;;;6225304;23;20113;-86
2022/03/20 01:05:25;;;;;;;17.63;7.57;;;;;;;;;;6247566;23;20328;-86
2022/03/20 01:08:46;;;;;;;;;;;;;;;;;;;;;
2022/03/20 01:11:30;;;;;;;15.27;7.85;;;;;;;;;;6221671;23;20511;-86
2022/03/20 01:13:56;;;;;;;17.13;8.30;;;;;;;;;;6221788;23;20040;-85
2022/03/20 01:16:22;;;;;;;9.30;7.60;;;;;;;;;;6222388;23;20377;-86
2022/03/20 01:18:49;;;;;;;15.68;7.68;;;;;;;;;;6196375;23;20040;-87
2022/03/20 01:21:26;;;;;;;15.40;8.18;;;;;;;;;;6198965;23;20024;-90
2022/03/20 01:23:52;;;;;;;12.18;7.68;;;;;;;;;;6177070;23;20073;-85
2022/03/20 01:26:18;;;;;;;11.68;8.30;;;;;;;;;;6211900;23;20243;-87
2022/03/20 01:28:44;;;;;;;14.30;7.72;;;;;;;;;;6206865;22;20038;-85
2022/03/20 01:37:30;;;;;;;16.70;9.20;;;;;;;;;;6286569;22;20086;-90
2022/03/20 01:40:15;;;;;;;15.68;8.38;;;;;;;;;;6231522;22;20039;-88
2022/03/20 01:42:43;;;;;;;14.27;8.60;;;;;;;;;;6232583;22;20050;-90
2022/03/20 01:45:26;;;;;;;15.52;8.80;;;;;;;;;;6264012;22;20020;-84
2022/03/20 01:47:53;;;;;;;15.05;8.18;;;;;;;;;;6259747;22;20024;-88
2022/03/20 01:50:21;;;;;;;14.52;8.82;;;;;;;;;;6241598;22;20083;-86
2022/03/20 01:55:36;;;;;;;17.55;8.93;;;;;;;;;;6240390;22;20079;-86
2022/03/20 01:58:02;;;;;;;15.13;9.30;;;;;;;;;;6250700;23;20028;-87
2022/03/20 02:00:32;;;;;;;13.57;8.82;;;;;;;;;;6252100;23;20035;-87
2022/03/20 02:03:29;;;;;;;18.02;9.40;;;;;;;;;;6187873;23;20023;-86
2022/03/20 02:05:55;;;;;;;16.55;10.07;;;;;;;;;;6138109;23;20057;-87
2022/03/20 02:08:25;;;;;;;17.10;9.95;;;;;;;;;;6188260;23;20076;-87
2022/03/20 02:10:55;;;;;;;20.20;9.02;;;;;;;;;;6163968;23;20029;-85
2022/03/20 02:16:57;;;;;;;20.25;10.55;;;;;;;;;;6181849;22;20042;-86
2022/03/20 02:19:24;;;;;;;20.20;9.68;;;;;;;;;;6231117;22;20031;-87
2022/03/20 02:21:50;;;;;;;21.67;10.30;;;;;;;;;;6255338;22;20039;-86
2022/03/20 02:27:39;;;;;;;17.25;10.60;;;;;;;;;;6255153;22;20043;-86
2022/03/20 02:30:12;;;;;;;18.35;9.20;;;;;;;;;;6257706;22;20020;-87
2022/03/20 02:32:49;;;;;;;19.52;10.52;;;;;;;;;;6283021;22;20064;-88
2022/03/20 02:35:19;;;;;;;20.33;11.35;;;;;;;;;;6255986;22;20043;-87
2022/03/20 02:37:50;;;;;;;16.00;10.23;;;;;;;;;;6270372;22;20460;-85
2022/03/20 02:40:17;;;;;;;20.73;10.38;;;;;;;;;;6279572;22;20099;-88
2022/03/20 02:42:46;;;;;;;18.48;10.63;;;;;;;;;;6284022;22;20020;-86
2022/03/20 02:45:14;;;;;;;15.05;9.88;;;;;;;;;;6282214;22;20023;-86
2022/03/20 02:47:47;;;;;;;18.00;11.02;;;;;;;;;;6283704;22;20015;-86
2022/03/20 02:50:35;;;;;;;23.15;10.73;;;;;;;;;;6255381;22;20094;-88
2022/03/20 02:53:03;;;;;;;17.50;10.35;;;;;;;;;;6254837;22;20537;-86
2022/03/20 02:58:24;;;;;;;20.25;11.45;;;;;;;;;;6259641;22;20028;-88
2022/03/20 03:00:52;;;;;;;18.17;11.27;;;;;;;;;;6260795;22;20027;-90
2022/03/20 03:03:18;;;;;;;19.17;12.13;;;;;;;;;;6284872;22;20034;-92
2022/03/20 03:05:45;;;;;;;19.88;11.43;;;;;;;;;;6207136;22;20016;-88
2022/03/20 03:10:57;;;;;;;17.55;11.38;;;;;;;;;;6249527;23;20035;-88
2022/03/20 03:13:25;;;;;;;19.67;11.23;;;;;;;;;;6223505;23;20031;-87
2022/03/20 03:15:55;;;;;;;23.63;11.75;;;;;;;;;;6225771;23;20031;-86
2022/03/20 03:18:40;;;;;;;20.83;12.13;;;;;;;;;;6248595;23;20070;-88
2022/03/20 03:21:09;;;;;;;20.77;11.93;;;;;;;;;;6251237;23;20028;-88
2022/03/20 03:23:38;;;;;;;18.75;11.82;;;;;;;;;;6249898;23;20028;-90
2022/03/20 03:26:25;;;;;;;19.40;12.35;;;;;;;;;;6253030;23;20094;-92
2022/03/20 03:28:51;;;;;;;19.65;12.40;;;;;;;;;;6199787;23;20046;-92
2022/03/20 03:31:17;;;;;;;21.75;12.80;;;;;;;;;;6228150;23;20016;-87
2022/03/20 03:36:36;;;;;;;19.10;11.90;;;;;;;;;;6194313;23;20121;-85
2022/03/20 03:39:22;;;;;;;22.90;13.18;;;;;;;;;;6225727;23;20135;-84
2022/03/20 03:41:51;;;;;;;23.55;12.75;;;;;;;;;;6225507;23;20097;-86
2022/03/20 03:44:18;;;;;;;22.17;12.98;;;;;;;;;;6253385;23;20047;-84
2022/03/20 03:46:59;;;;;;;21.13;12.73;;;;;;;;;;6252676;23;20015;-90
2022/03/20 03:49:42;;;;;;;26.00;13.63;;;;;;;;;;6228464;23;20028;-87
2022/03/20 03:52:08;;;;;;;20.23;13.15;;;;;;;;;;6225992;23;20244;-87
2022/03/20 03:54:34;;;;;;;20.13;13.50;;;;;;;;;;6255933;23;20020;-84
2022/03/20 03:57:00;;;;;;;21.38;12.75;;;;;;;;;;6253402;23;20438;-86
2022/03/20 03:59:26;;;;;;;22.85;14.50;;;;;;;;;;6255220;23;20020;-87
2022/03/20 04:01:52;;;;;;;22.40;14.85;;;;;;;;;;6254303;22;20020;-85
2022/03/20 04:04:31;;;;;;;22.50;14.18;;;;;;;;;;6253607;23;20031;-87
2022/03/20 04:06:57;;;;;;;25.23;14.73;;;;;;;;;;6203592;23;20051;-87
2022/03/20 04:09:25;;;;;;;19.48;14.23;;;;;;;;;;6201719;23;20020;-90
2022/03/20 04:11:51;;;;;;;19.38;14.18;;;;;;;;;;6254897;23;20025;-86
2022/03/20 04:14:30;;;;;;;22.67;14.07;;;;;;;;;;6226985;23;20400;-87
2022/03/20 04:16:57;;;;;;;23.27;13.23;;;;;;;;;;6256309;23;20055;-88
2022/03/20 04:19:24;;;;;;;24.98;14.30;;;;;;;;;;6226622;23;20016;-87
2022/03/20 04:21:50;;;;;;;27.15;14.18;;;;;;;;;;6226973;23;20039;-87
2022/03/20 04:24:16;;;;;;;26.55;15.02;;;;;;;;;;6201177;23;20028;-86
2022/03/20 04:26:52;;;;;;;23.08;15.38;;;;;;;;;;6226918;23;20020;-86
2022/03/20 04:29:20;;;;;;;23.48;14.45;;;;;;;;;;6201605;23;20059;-86
2022/03/20 04:31:47;;;;;;;23.92;14.73;;;;;;;;;;6251322;23;20024;-87
2022/03/20 04:34:13;;;;;;;24.67;15.38;;;;;;;;;;6228256;23;20016;-87
2022/03/20 04:36:39;;;;;;;21.88;14.80;;;;;;;;;;6255242;23;20044;-87
2022/03/20 04:39:06;;;;;;;31.65;16.25;;;;;;;;;;6255409;23;20016;-89
2022/03/20 04:41:33;;;;;;;22.80;15.48;;;;;;;;;;6257398;23;20410;-85
2022/03/20 04:44:00;;;;;;;24.42;15.80;;;;;;;;;;6204738;23;20052;-88
2022/03/20 04:46:27;;;;;;;25.25;15.90;;;;;;;;;;6176903;23;20020;-89
2022/03/20 05:00:07;;;;;;;;;;;3.10;99.90;;;;;;6229912;23;20107;-87
2022/03/20 05:02:34;;;;;;;23.83;16.10;;;;;;;;;;6254058;23;19916;-84
2022/03/20 05:05:00;;;;;;;23.50;16.75;;;;;;;;;;6202502;23;20432;-87
2022/03/20 05:07:27;;;;;;;26.65;17.08;;;;;;;;;;6183479;23;20016;-86
2022/03/20 05:15:32;;;;;;;27.05;16.48;;;;;;;;;;6236425;23;20020;-86
2022/03/20 05:21:16;;;;;;;26.67;16.75;;;;;;;;;;6234224;23;20125;-85
2022/03/20 05:23:42;;;;;;;24.85;17.40;;;;;;;;;;6254365;23;20020;-84
2022/03/20 05:26:08;;;;;;;28.50;16.45;;;;;;;;;;6226952;23;20016;-86
2022/03/20 05:28:34;;;;;;;26.75;17.67;;;;;;;;;;6259807;23;20027;-86
2022/03/20 05:31:01;;;;;;;28.55;17.35;;;;;;;;;;6255018;23;20016;-86
2022/03/20 05:33:31;;;;;;;22.85;16.60;;;;;;;;;;6256035;23;20035;-84
2022/03/20 05:35:57;;;;;;;29.92;17.98;;;;;;;;;;6200889;23;20028;-86
2022/03/20 05:38:24;;;;;;;31.95;17.88;;;;;;;;;;6202525;23;20021;-86
2022/03/20 05:40:50;;;;;;;27.67;17.23;;;;;;;;;;6252607;23;20094;-89
2022/03/20 05:43:35;;;;;;;25.00;17.17;;;;;;;;;;6255114;23;20016;-86
2022/03/20 05:46:03;;;;;;;26.38;17.90;;;;;;;;;;6254810;23;20020;-85
2022/03/20 05:48:29;;;;;;;28.77;18.02;;;;;;;;;;6227621;23;20086;-85
2022/03/20 05:50:55;;;;;;;29.38;18.50;;;;;;;;;;6227058;23;20020;-85
2022/03/20 05:53:21;;;;;;;26.30;18.02;;;;;;;;;;6224390;23;20012;-84
2022/03/20 05:58:43;;;;;;;26.80;18.33;;;;;;;;;;6222788;23;20020;-86
2022/03/20 06:01:34;;;;;;;30.55;18.42;;;;;;;;;;6252728;23;20574;-85
2022/03/20 06:04:19;;;;;;;26.38;17.33;;;;;;;;;;6223631;22;20023;-86
2022/03/20 06:06:45;;;;;;;27.95;17.55;;;;;;;;;;6234055;23;20024;-84
2022/03/20 06:09:40;;;;;;;;;;;;;;;;;;;;;
2022/03/20 06:13:06;;;;;;;;;;;;;;;;;;;;;
2022/03/20 06:16:08;;;;;;;28.95;18.52;;;;;;;;;;6128684;23;20487;-86
2022/03/20 06:18:46;;;;;;;28.63;18.52;;;;;;;;;;6126820;23;20427;-87
2022/03/20 06:21:25;;;;;;;27.65;18.33;;;;;;;;;;6129996;23;20029;-87
2022/03/20 06:24:10;;;;;;;26.63;18.15;;;;;;;;;;6151720;23;20023;-86
2022/03/20 06:26:38;;;;;;;30.98;19.73;;;;;;;;;;6201089;23;20340;-86
2022/03/20 06:29:09;;;;;;;28.75;19.23;;;;;;;;;;6199852;23;20316;-84
2022/03/20 06:31:42;;;;;;;27.58;18.55;;;;;;;;;;6199895;23;20020;-88
2022/03/20 06:34:10;;;;;;;29.58;18.17;;;;;;;;;;6225626;23;20019;-85
2022/03/20 06:36:36;;;;;;;26.00;18.00;;;;;;;;;;6225286;23;20104;-85
2022/03/20 06:39:02;;;;;;;28.20;19.48;;;;;;;;;;6200649;23;20024;-85
2022/03/20 06:41:28;;;;;;;28.20;18.73;;;;;;;;;;6198156;23;20016;-86
2022/03/20 06:43:55;;;;;;;25.88;17.73;;;;;;;;;;6224303;23;20020;-86
2022/03/20 06:46:21;;;;;;;28.15;18.60;;;;;;;;;;6223469;23;20020;-84
2022/03/20 06:49:25;;;;;;;27.13;19.45;;;;;;;;;;6223598;23;20081;-84
2022/03/20 06:51:51;;;;;;;28.08;18.98;;;;;;;;;;6226099;23;20139;-89
2022/03/20 06:54:17;;;;;;;26.25;19.08;;;;;;;;;;6202102;23;20087;-87
2022/03/20 06:56:43;;;;;;;27.08;17.35;;;;;;;;;;6199890;23;20020;-88
2022/03/20 06:59:10;;;;;;;31.83;18.83;;;;;;;;;;6225555;23;20055;-89
2022/03/20 07:01:37;;;;;;;28.88;18.02;;;;;;;;;;6202124;23;20016;-89
2022/03/20 07:04:06;;;;;;;28.85;18.90;;;;;;;;;;6228674;22;20020;-86
2022/03/20 07:06:43;;;;;;;29.15;18.98;;;;;;;;;;6258202;23;20020;-85
2022/03/20 07:09:37;;;;;;;25.40;18.88;;;;;;;;;;6199588;23;20023;-87
2022/03/20 07:12:04;;;;;;;26.47;18.77;;;;;;;;;;6200879;23;20020;-85
2022/03/20 07:14:30;;;;;;;26.25;17.52;;;;;;;;;;6223144;23;20020;-86
2022/03/20 07:17:18;;;;;;;30.25;20.83;;;;;;;;;;6225839;23;20032;-85
2022/03/20 07:19:44;;;;;;;28.55;17.10;;;;;;;;;;6227716;23;20047;-85
2022/03/20 07:22:11;;;;;;;26.50;18.17;;;;;;;;;;6231827;23;20020;-86
2022/03/20 07:24:38;;;;;;;26.70;18.55;;;;;;;;;;6178131;23;20024;-85
2022/03/20 07:30:03;;;;;;;26.30;17.45;;;;;;;;;;6252117;23;20099;-86
2022/03/20 07:32:29;;;;;;;22.98;16.52;;;;;;;;;;6250285;23;20468;-87
2022/03/20 07:37:52;;;;;;;27.92;18.73;;;;;;;;;;6234074;23;20028;-84
2022/03/20 07:40:18;;;;;;;27.77;17.73;;;;;;;;;;6231899;23;20028;-85
2022/03/20 07:42:46;;;;;;;25.90;17.75;;;;;;;;;;6236237;22;20046;-85
2022/03/20 07:45:13;;;;;;;26.63;18.17;;;;;;;;;;6235891;23;20268;-87
2022/03/20 07:47:58;;;;;;;26.05;17.95;;;4.60;99.90;;;;;;6211714;23;20013;-88
2022/03/20 07:50:31;;;;;;;24.27;16.70;;;;;;;;;;6251490;23;20332;-87
2022/03/20 07:52:59;;;;;;;24.35;17.50;;;;;;;;;;6254110;23;20034;-87
2022/03/20 07:55:27;;;;;;;23.73;17.25;;;;;;;;;;6224826;23;20039;-86
2022/03/20 07:57:53;;;;;;;27.35;16.20;;;;;;;;;;6253927;23;20028;-84
2022/03/20 08:00:39;;;;;;;28.10;17.48;;;;;;;;;;6199075;23;20061;-86
2022/03/20 08:03:05;;;;;;;27.00;17.63;;;;;;;;;;6198290;23;20024;-85
2022/03/20 08:05:31;;;;;;;25.45;16.80;;;;;;;;;;6222486;23;20778;-86
2022/03/20 08:07:58;;;;;;;25.50;16.85;;;;;;;;;;6197807;23;20028;-86
2022/03/20 08:10:24;;;;;;;25.35;16.63;;;;;;;;;;6251286;23;20016;-86
2022/03/20 08:12:50;;;;;;;27.02;17.13;;;;;;;;;;6249723;23;20016;-85
2022/03/20 08:15:17;;;;;;;23.88;17.75;;;;;;;;;;6199839;23;20051;-88
2022/03/20 08:17:43;;;;;;;27.90;18.90;;;;;;;;;;6197921;23;20421;-85
2022/03/20 08:20:10;;;;;;;27.75;17.60;;;;;;;;;;6251744;23;20020;-86
2022/03/20 08:22:37;;;;;;;28.13;17.52;;;;;;;;;;6195834;23;20107;-88
2022/03/20 08:25:03;;;;;;;23.38;16.65;;;;;;;;;;6252048;23;20024;-88
2022/03/20 08:27:30;;;;;;;23.42;16.67;;;;;;;;;;6225138;23;20020;-85
2022/03/20 08:29:57;;;;;;;28.23;16.98;;;;;;;;;;6227130;23;20016;-87
2022/03/20 08:32:24;;;;;;;23.27;16.90;;;;;;;;;;6251959;23;20091;-87
2022/03/20 08:35:13;;;;;;;23.55;16.90;;;;;;;;;;6203040;23;20059;-86
2022/03/20 08:37:40;;;;;;;32.70;18.73;;;;;;;;;;6209317;23;20020;-90
2022/03/20 08:40:06;;;;;;;24.27;17.75;;;;;;;;;;6254642;23;20016;-85
2022/03/20 08:42:32;;;;;;;23.65;16.75;;;;;;;;;;6262822;23;20027;-87
2022/03/20 08:44:58;;;;;;;25.30;18.52;;;;;;;;;;6235853;23;20020;-87
2022/03/20 08:47:27;;;;;;;25.20;17.23;;;;;;;;;;6240245;23;20020;-87
2022/03/20 08:49:53;;;;;;;27.08;17.42;;;;;;;;;;6262167;23;20020;-89
2022/03/20 08:52:19;;;;;;;26.35;17.27;;;;;;;;;;6238922;23;20024;-86
2022/03/20 08:55:03;;;;;;;;;;;;;;;;;;;;;
2022/03/20 08:57:52;;;;;;;27.38;18.08;;;;;;;;;;6263083;23;20079;-87
2022/03/20 09:00:19;;;;;;;27.17;18.52;;;;;;;;;;6255445;23;20016;-86
2022/03/20 09:02:46;;;;;;;26.52;17.98;;;;;;;;;;6200269;23;20020;-89
2022/03/20 09:05:12;;;;;;;30.05;20.05;;;;;;;;;;6201487;23;20016;-86
2022/03/20 09:07:39;;;;;;;25.88;18.48;;;;;;;;;;6224357;23;20021;-86
2022/03/20 09:10:06;;;;;;;24.00;17.27;;;;;;;;;;6255679;23;20434;-88
2022/03/20 09:12:32;;;;;;;30.65;18.13;;;;;;;;;;6226160;23;20921;-87
2022/03/20 09:14:58;;;;;;;28.63;19.02;;;;;;;;;;6211279;23;20075;-88
2022/03/20 09:23:19;;;;;;;29.45;19.45;;;;;;;;;;6284526;22;20130;-87
2022/03/20 09:29:08;;;;;;;28.80;18.48;;;;;;;;;;6285212;22;20015;-86
2022/03/20 09:31:37;;;;;;;27.42;19.52;;;;;;;;;;6255526;22;20098;-86
2022/03/20 09:34:32;;;;;;;29.27;19.73;;;;;;;;;;6256249;22;20077;-87
2022/03/20 09:36:58;;;;;;;30.77;20.67;;;;;;;;;;6256744;22;20085;-87
2022/03/20 09:39:26;;;;;;;28.58;20.23;;;;;;;;;;6256772;22;20188;-86
2022/03/20 09:41:56;;;;;;;30.08;20.63;;;;;;;;;;6255755;22;20020;-86
2022/03/20 09:44:23;;;;;;;35.15;22.13;;;;;;;;;;6206814;22;20023;-86
2022/03/20 09:46:49;;;;;;;27.48;19.23;;;;;;;;;;6285728;22;20050;-87
2022/03/20 09:49:16;;;;;;;29.58;19.17;;;;;;;;;;6255669;22;20020;-87
2022/03/20 09:51:55;;;;;;;27.27;19.98;;;;;;;;;;6232539;22;20030;-86
2022/03/20 09:54:21;;;;;;;26.75;20.45;;;;;;;;;;6281139;22;20069;-87
2022/03/20 09:56:51;;;;;;;29.42;22.08;;;;;;;;;;6280710;22;20090;-87
2022/03/20 09:59:17;;;;;;;27.45;21.08;;;;;;;;;;6280527;22;20090;-86
2022/03/20 10:01:43;;;;;;;27.92;20.70;;;;;;;;;;6280691;22;20015;-87
2022/03/20 10:04:11;;;;;;;26.98;19.85;;;;;;;;;;6280655;22;20020;-86
2022/03/20 10:06:38;;;;;;;28.48;20.27;;;;;;;;;;6279273;22;20030;-86
2022/03/20 10:09:05;;;;;;;27.17;20.08;;;;;;;;;;6281674;22;20109;-86
2022/03/20 10:11:32;;;;;;;30.90;19.13;;;;;;;;;;6282361;22;20046;-88
2022/03/20 10:17:28;;;;;;;31.40;21.42;;;;;;;;;;6195226;22;20079;-86
2022/03/20 10:19:56;;;;;;;35.20;21.33;;;;;;;;;;6254892;22;20055;-86
2022/03/20 10:22:22;;;;;;;28.27;19.83;;;;;;;;;;6287149;22;20019;-88
2022/03/20 10:24:49;;;;;;;29.77;21.67;;;;;;;;;;6286520;22;20339;-89
2022/03/20 10:30:01;;;;;;;30.50;22.15;;;;;;;;;;6259820;22;20024;-85
2022/03/20 10:32:27;;;;;;;31.40;22.33;;;;;;;;;;6254553;22;20074;-86
2022/03/20 10:34:58;;;;;;;38.72;24.05;;;;;;;;;;6256161;22;20015;-85
2022/03/20 10:37:44;;;;;;;30.23;22.38;;;;;;;;;;6282082;22;20107;-85
2022/03/20 10:40:17;;;;;;;31.35;24.10;;;;;;;;;;6278602;22;20034;-87
2022/03/20 10:42:44;;;;;;;39.47;22.42;;;;;;;;;;6255215;22;20020;-85
2022/03/20 10:45:11;;;;;;;34.65;23.92;;;;;;;;;;6251454;22;20038;-86
2022/03/20 10:47:37;;;;;;;29.73;22.38;;;;;;;;;;6281693;22;20020;-86
2022/03/20 10:50:06;;;;;;;29.85;22.35;;;;;;;;;;6278886;22;20020;-85
2022/03/20 10:52:35;;;;;;;35.20;23.48;;;;;;;;;;6254863;22;20020;-86
2022/03/20 10:55:20;;;;;;;31.88;23.27;;;;;;;;;;6278649;22;20030;-87
2022/03/20 10:57:47;;;;;;;31.15;23.13;;;;;;;;;;6278504;22;20020;-87
2022/03/20 11:00:14;;;;;;;31.08;21.95;;;;;;;;;;6204943;22;20023;-84
2022/03/20 11:02:41;;;;;;;27.67;22.25;;;;;;;;;;6255490;22;20054;-85
2022/03/20 11:05:08;;;;;;;30.38;22.17;;;;;;;;;;6282955;22;20019;-87
2022/03/20 11:10:13;;;;;;;33.35;21.63;;;;;;;;;;6192078;23;20029;-86
2022/03/20 11:12:41;;;;;;;33.50;23.20;;;;;;;;;;6165465;23;20044;-86
2022/03/20 11:15:09;;;;;;;33.35;22.92;;;;;;;;;;6191461;23;20089;-88
2022/03/20 11:17:39;;;;;;;30.90;21.83;;;;;;;;;;6140360;23;20032;-86
2022/03/20 11:20:07;;;;;;;38.72;23.27;;;;;;;;;;6189985;23;20021;-86
2022/03/20 11:22:36;;;;;;;31.63;21.95;;;;;;;;;;6191638;23;20028;-87
2022/03/20 11:25:05;;;;;;;28.27;21.58;;;;;;;;;;6163309;23;20040;-87
2022/03/20 11:28:09;;;;;;;32.30;22.95;;;;;;;;;;6165117;23;20025;-85
2022/03/20 11:30:36;;;;;;;31.40;22.42;;;;;;;;;;6162838;23;20025;-86
2022/03/20 11:33:02;;;;;;;30.42;22.98;;;;;;;;;;6167641;23;20091;-86
2022/03/20 11:35:30;;;;;;;30.65;24.40;;;;;;;;;;6166490;23;20017;-85
2022/03/20 11:37:59;;;;;;;31.88;24.27;;;;;;;;;;6170450;23;20396;-86
2022/03/20 11:40:36;;;;;;;33.10;22.20;;;;;;;;;;6167157;23;20032;-85
2022/03/20 11:43:13;;;;;;;33.15;23.20;;;;;;;;;;6139870;23;20028;-86
2022/03/20 11:45:39;;;;;;;27.30;21.77;;;;;;;;;;6140811;23;20021;-86
2022/03/20 11:52:37;;;;;;;34.05;23.63;;;;;;;;;;6222938;22;20054;-86
2022/03/20 11:55:25;;;;;;;27.58;22.77;;;;;;;;;;6278466;22;20020;-88
2022/03/20 11:57:52;;;;;;;28.77;22.35;;;;;;;;;;6283395;22;20016;-88
2022/03/20 12:00:23;;;;;;;29.58;22.92;;;;;;;;;;6253416;22;20028;-87
2022/03/20 12:03:08;;;;;;;32.28;22.50;;;;;;;;;;6285132;22;20034;-88
2022/03/20 12:05:37;;;;;;;31.95;22.67;;;;;;;;;;6265609;22;20050;-86
2022/03/20 12:08:09;;;;;;;32.83;22.05;;;;;;;;;;6245203;22;20017;-86
2022/03/20 12:14:27;;;;;;;26.23;21.85;;;;;;;;;;6264693;23;20020;-91
2022/03/20 12:20:40;;;;;;;31.00;20.52;;;12.00;99.90;;;;;;6237767;23;20024;-86
2022/03/20 12:23:25;;;;;;;32.10;20.65;;;;;;;;;;6266082;23;20020;-90
2022/03/20 12:25:51;;;;;;;27.00;21.15;;;;;;;;;;6261513;23;20035;-87
2022/03/20 12:28:36;;;;;;;29.13;21.67;;;;;;;;;;6266711;23;20016;-93
2022/03/20 12:31:49;;;;;;;27.70;20.42;;;12.30;99.90;;;;;;6237174;23;20468;-89
2022/03/20 12:34:29;;;;;;;27.25;20.95;;;;;;;;;;6229748;23;20020;-90
2022/03/20 12:37:26;;;;;;;30.08;20.45;;;;;;;;;;6236903;23;20035;-87
2022/03/20 12:43:28;;;;;;;27.20;21.27;;;;;;;;;;6265245;23;20056;-86
2022/03/20 12:46:22;;;;;;;25.50;20.00;;;;;;;;;;6155572;23;20053;-91
2022/03/20 12:49:18;;;;;;;27.20;21.00;;;;;;;;;;6125466;23;20057;-91
2022/03/20 12:54:58;;;;;;;28.05;20.33;;;;;;;;;;6208587;23;20047;-91
2022/03/20 13:00:52;;;;;;;30.63;20.30;;;;;;;;;;6260360;23;20031;-85
2022/03/20 13:03:19;;;;;;;27.13;19.80;;;;;;;;;;6213801;23;20027;-91
2022/03/20 13:06:07;;;;;;;25.77;20.45;;;;;;;;;;6261284;23;20020;-94
2022/03/20 13:08:34;;;;;;;27.60;18.90;;;;;;;;;;6236818;23;20027;-89
2022/03/20 13:11:48;;;;;;;29.92;18.70;;;;;;;;;;6233774;23;20020;-91
2022/03/20 13:20:18;;;;;;;26.30;19.48;;;;;;;;;;6215687;22;20036;-89
2022/03/20 13:22:44;;;;;;;25.15;20.92;;;;;;;;;;6193796;23;20024;-90
2022/03/20 13:25:31;;;;;;;27.15;19.67;;;12.80;99.90;;;;;;6195555;23;20024;-87
2022/03/20 13:28:25;;;;;;;26.65;20.05;;;;;;;;;;6121450;23;20028;-89
2022/03/20 13:30:51;;;;;;;27.27;18.92;;;;;;;;;;6122554;23;20074;-85
2022/03/20 13:33:27;;;;;;;27.27;20.40;;;;;;;;;;6150399;23;20475;-86
2022/03/20 13:35:54;;;;;;;30.58;20.52;;;;;;;;;;6185346;23;20125;-87
2022/03/20 13:38:20;;;;;;;25.42;19.25;;;;;;;;;;6188353;23;20416;-86
2022/03/20 13:40:46;;;;;;;25.90;19.40;;;;;;;;;;6210804;23;20095;-88
2022/03/20 13:43:22;;;;;;;26.15;19.63;;;;;;;;;;6162061;23;20027;-87
2022/03/20 13:52:36;;;;;;;29.70;20.88;;;;;;;;;;6091250;23;20088;-88
2022/03/20 13:55:05;;;;;;;27.92;19.23;;;;;;;;;;6158066;23;20020;-87
2022/03/20 13:57:50;;;;;;;30.98;21.40;;;;;;;;;;6184382;23;20107;-86
2022/03/20 14:03:27;;;;;;;27.60;20.15;;;;;;;;;;6210942;23;20021;-86
2022/03/20 14:05:55;;;;;;;26.75;20.63;;;;;;;;;;6209167;23;20044;-86
2022/03/20 14:10:53;;;;;;;29.85;19.65;;;;;;;;;;6241796;23;20123;-87
2022/03/20 14:16:56;;;;;;;28.48;19.60;;;;;;;;;;6242860;23;20115;-88
2022/03/20 14:19:22;;;;;;;25.15;18.92;;;;;;;;;;6243172;23;20020;-87
2022/03/20 14:22:02;;;;;;;29.33;18.90;;;;;;;;;;6216618;23;20016;-86
2022/03/20 14:39:57;;;;;;;27.02;20.33;;;;;;;;;;6243187;23;20073;-88
2022/03/20 14:42:30;;;;;;;36.50;26.52;;;;;;;;;;6221200;23;20105;-86
2022/03/20 14:45:05;;;;;;;27.75;19.17;;;;;;;;;;6252656;23;20027;-90
2022/03/20 14:47:38;;;;;;;35.25;21.80;;;;;;;;;;6259695;23;20020;-87
2022/03/20 14:50:11;;;;;;;54.30;34.42;;;;;;;;;;6256182;23;20020;-86
2022/03/20 14:52:40;;;;;;;27.80;19.88;;;;;;;;;;6232622;23;20020;-89
2022/03/20 14:55:50;;;;;;;28.63;20.45;;;12.40;99.90;;;;;;6265185;23;20020;-90
2022/03/20 14:58:49;;;;;;;30.08;20.70;;;;;;;;;;6234416;23;20046;-93
2022/03/20 15:01:34;;;;;;;23.73;18.70;;;;;;;;;;6218710;22;20055;-91
2022/03/20 15:13:59;;;;;;;26.58;18.80;;;;;;;;;;6257149;23;20020;-89
2022/03/20 15:16:27;;;;;;;25.25;19.83;;;;;;;;;;6231399;23;20071;-89
2022/03/20 15:18:54;;;;;;;27.25;18.40;;;;;;;;;;6207150;23;20027;-87
2022/03/20 15:21:20;;;;;;;26.50;18.67;;;;;;;;;;6278698;22;20024;-88
2022/03/20 15:24:04;;;;;;;30.90;18.83;;;;;;;;;;6266186;22;20580;-88
2022/03/20 15:26:31;;;;;;;24.17;18.30;;;;;;;;;;6237817;23;20483;-87
2022/03/20 15:28:58;;;;;;;27.45;19.25;;;;;;;;;;6240871;23;20027;-89
2022/03/20 15:31:24;;;;;;;24.98;18.48;;;;;;;;;;6237097;23;20031;-93
2022/03/20 15:37:27;;;;;;;27.60;18.05;;;;;;;;;;6238319;23;20043;-86
2022/03/20 15:39:53;;;;;;;24.13;17.98;;;;;;;;;;6239179;23;20024;-91
2022/03/20 15:42:35;;;;;;;27.88;20.02;;;;;;;;;;6263729;22;20605;-89
2022/03/20 15:45:05;;;;;;;27.73;18.65;;;;;;;;;;6267907;22;20023;-88
2022/03/20 15:47:41;;;;;;;24.77;17.77;;;;;;;;;;6268571;22;20016;-90
2022/03/20 15:50:10;;;;;;;25.55;18.38;;;;;;;;;;6243376;23;20453;-91
2022/03/20 15:52:58;;;;;;;26.08;18.60;;;;;;;;;;6218757;22;20048;-92
2022/03/20 15:55:24;;;;;;;26.55;19.48;;;;;;;;;;6241457;23;20091;-89
2022/03/20 15:57:50;;;;;;;29.63;19.30;;;;;;;;;;6216412;23;20043;-92
2022/03/20 16:00:16;;;;;;;30.58;18.67;;;;;;;;;;6243795;23;20023;-91
2022/03/20 16:03:01;;;;;;;23.85;19.42;;;;;;;;;;6267284;22;20063;-90
2022/03/20 16:05:35;;;;;;;;;;;12.40;99.90;;;;;;6270763;22;20702;-87
2022/03/20 16:08:14;;;;;;;;;;;;;;;;;;6244462;23;19921;-87
2022/03/20 16:10:43;;;;;;;26.33;18.85;;;;;;;;;;6222215;23;19916;-90
2022/03/20 16:13:10;;;;;;;28.42;18.42;;;;;;;;;;6244178;23;20119;-92
2022/03/20 16:15:38;;;;;;;27.38;19.73;;;;;;;;;;6269110;22;20119;-86
2022/03/20 16:18:07;;;;;;;26.48;19.15;;;;;;;;;;6241558;23;20016;-86
2022/03/20 16:20:33;;;;;;;28.20;19.52;;;;;;;;;;6246913;23;20050;-86
2022/03/20 16:29:16;;;;;;;26.75;17.98;;;;;;;;;;6242407;23;20020;-88
2022/03/20 16:31:43;;;;;;;28.27;18.83;;;;;;;;;;6242594;23;20363;-89
2022/03/20 16:34:12;;;;;;;25.92;18.15;;;;;;;;;;6244522;23;20091;-88
2022/03/20 16:36:48;;;;;;;25.52;17.23;;;;;;;;;;6245129;23;20043;-86
2022/03/20 16:39:14;;;;;;;25.65;18.30;;;;;;;;;;6215122;23;20028;-86
2022/03/20 16:41:41;;;;;;;23.85;17.38;;;;;;;;;;6265437;22;20472;-89
2022/03/20 16:44:18;;;;;;;25.83;18.17;;;;;;;;;;6241228;23;20020;-87
2022/03/20 16:46:53;;;;;;;26.80;19.40;;;;;;;;;;6267736;22;20024;-86
2022/03/20 16:49:19;;;;;;;31.52;20.42;;;;;;;;;;6243967;23;20027;-89
2022/03/20 16:51:46;;;;;;;26.92;20.05;;;;;;;;;;6245181;23;20016;-87
2022/03/20 16:54:12;;;;;;;25.60;18.83;;;;;;;;;;6243782;23;20016;-87
2022/03/20 16:56:38;;;;;;;30.25;18.80;;;;;;;;;;6270984;22;20027;-86
2022/03/20 16:59:07;;;;;;;23.15;17.90;;;;;;;;;;6246841;23;20024;-84
2022/03/20 17:01:33;;;;;;;24.63;17.73;;;;;;;;;;6271136;22;20027;-92
2022/03/20 17:04:00;;;;;;;26.63;17.42;;;;;;;;;;6244121;23;20158;-88
2022/03/20 17:09:48;;;;;;;23.90;18.50;;;;;;;;;;6247077;23;20093;-87
2022/03/20 17:12:24;;;;;;;28.98;18.42;;;;;;;;;;6240820;23;20088;-87
2022/03/20 17:15:28;;;;;;;22.58;15.90;;;;;;;;;;6239457;23;20034;-87
2022/03/20 17:17:54;;;;;;;24.90;17.48;;;;;;;;;;6239470;23;20150;-88
2022/03/20 17:20:20;;;;;;;22.80;16.52;;;;;;;;;;6265676;22;20113;-88
2022/03/20 17:23:16;;;;;;;22.38;17.15;;;;;;;;;;6240116;23;20095;-86
2022/03/20 17:25:42;;;;;;;24.63;17.98;;;;;;;;;;6160629;23;20020;-86
2022/03/20 17:28:08;;;;;;;25.60;17.58;;;;;;;;;;6241660;23;20031;-86